sensor_id;sensor_type;location;lat;lon;timestamp;pressure;altitude;pressure_sealevel;temperature;humidity
9423;BME280;4750;49.506;10.400;2022-08-24T00:00:50;98156.81;;;16.25;69.77
9423;BME280;4750;49.506;10.400;2022-08-24T00:03:35;98241.72;;;16.79;70.00
9423;BME280;4750;49.506;10.400;2022-08-24T00:06:21;98249.34;;;16.86;70.08
9423;BME280;4750;49.506;10.400;2022-08-24T00:09:05;98257.97;;;16.79;70.19
9423;BME280;4750;49.506;10.400;2022-08-24T00:11:49;98236.91;;;16.72;70.23
9423;BME280;4750;49.506;10.400;2022-08-24T00:14:33;98242.75;;;16.74;70.46
9423;BME280;4750;49.506;10.400;2022-08-24T00:17:18;98242.88;;;16.66;70.54
9423;BME280;4750;49.506;10.400;2022-08-24T00:20:04;98250.41;;;16.54;70.67
9423;BME280;4750;49.506;10.400;2022-08-24T00:22:48;98231.88;;;16.43;70.75
9423;BME280;4750;49.506;10.400;2022-08-24T00:25:32;98244.63;;;16.62;71.12
9423;BME280;4750;49.506;10.400;2022-08-24T00:28:17;98241.72;;;16.42;71.10
9423;BME280;4750;49.506;10.400;2022-08-24T00:31:02;98184.44;;;16.07;71.00
9423;BME280;4750;49.506;10.400;2022-08-24T00:33:46;98243.59;;;16.30;71.27
9423;BME280;4750;49.506;10.400;2022-08-24T00:36:31;98249.09;;;16.28;71.21
9423;BME280;4750;49.506;10.400;2022-08-24T00:39:16;98231.84;;;16.06;71.63
9423;BME280;4750;49.506;10.400;2022-08-24T00:42:00;98161.84;;;15.44;72.07
9423;BME280;4750;49.506;10.400;2022-08-24T00:44:44;98235.25;;;16.05;72.39
9423;BME280;4750;49.506;10.400;2022-08-24T00:47:37;98224.69;;;15.88;72.73
9423;BME280;4750;49.506;10.400;2022-08-24T00:50:33;98237.72;;;15.91;72.99
9423;BME280;4750;49.506;10.400;2022-08-24T00:53:36;98230.69;;;15.74;73.14
9423;BME280;4750;49.506;10.400;2022-08-24T00:56:26;98250.09;;;15.78;73.53
9423;BME280;4750;49.506;10.400;2022-08-24T00:59:16;98221.38;;;15.46;73.78
9423;BME280;4750;49.506;10.400;2022-08-24T01:02:04;98244.09;;;15.56;74.44
9423;BME280;4750;49.506;10.400;2022-08-24T01:04:58;98250.44;;;15.64;74.53
9423;BME280;4750;49.506;10.400;2022-08-24T01:07:43;98255.16;;;15.62;74.72
9423;BME280;4750;49.506;10.400;2022-08-24T01:10:32;98250.88;;;15.61;74.98
9423;BME280;4750;49.506;10.400;2022-08-24T01:13:19;98236.97;;;15.55;74.85
9423;BME280;4750;49.506;10.400;2022-08-24T01:16:06;98241.84;;;15.55;74.98
9423;BME280;4750;49.506;10.400;2022-08-24T01:18:51;98241.28;;;15.39;74.95
9423;BME280;4750;49.506;10.400;2022-08-24T01:21:42;98193.28;;;15.13;75.32
9423;BME280;4750;49.506;10.400;2022-08-24T01:24:27;98244.34;;;15.33;75.08
9423;BME280;4750;49.506;10.400;2022-08-24T01:27:13;98253.00;;;15.35;75.25
9423;BME280;4750;49.506;10.400;2022-08-24T01:30:01;98242.94;;;15.24;75.75
9423;BME280;4750;49.506;10.400;2022-08-24T01:32:59;98195.16;;;14.76;76.08
9423;BME280;4750;49.506;10.400;2022-08-24T01:35:44;98263.97;;;15.13;76.40
9423;BME280;4750;49.506;10.400;2022-08-24T01:38:28;98250.97;;;14.93;76.29
9423;BME280;4750;49.506;10.400;2022-08-24T01:41:12;98241.91;;;14.69;76.20
9423;BME280;4750;49.506;10.400;2022-08-24T01:43:58;98259.22;;;14.73;76.66
9423;BME280;4750;49.506;10.400;2022-08-24T01:46:46;98272.41;;;14.71;76.83
9423;BME280;4750;49.506;10.400;2022-08-24T01:49:35;98190.66;;;14.15;77.08
9423;BME280;4750;49.506;10.400;2022-08-24T01:52:22;98258.13;;;14.61;77.30
9423;BME280;4750;49.506;10.400;2022-08-24T01:55:11;98236.09;;;14.34;77.63
9423;BME280;4750;49.506;10.400;2022-08-24T01:57:56;98252.22;;;14.41;77.68
9423;BME280;4750;49.506;10.400;2022-08-24T02:00:43;98247.72;;;14.46;78.15
9423;BME280;4750;49.506;10.400;2022-08-24T02:03:27;98235.38;;;14.26;78.08
9423;BME280;4750;49.506;10.400;2022-08-24T02:06:13;98236.53;;;14.23;78.46
9423;BME280;4750;49.506;10.400;2022-08-24T02:09:01;98256.09;;;14.28;78.63
9423;BME280;4750;49.506;10.400;2022-08-24T02:11:46;98267.34;;;14.36;78.85
9423;BME280;4750;49.506;10.400;2022-08-24T02:14:31;98243.81;;;14.34;78.79
9423;BME280;4750;49.506;10.400;2022-08-24T02:17:16;98190.53;;;13.72;78.46
9423;BME280;4750;49.506;10.400;2022-08-24T02:20:05;98255.31;;;13.95;78.73
9423;BME280;4750;49.506;10.400;2022-08-24T02:22:50;98253.59;;;14.00;78.99
9423;BME280;4750;49.506;10.400;2022-08-24T02:25:36;98253.97;;;13.96;79.39
9423;BME280;4750;49.506;10.400;2022-08-24T02:28:20;98251.78;;;13.87;79.60
9423;BME280;4750;49.506;10.400;2022-08-24T02:31:06;98233.78;;;13.74;79.48
9423;BME280;4750;49.506;10.400;2022-08-24T02:33:50;98271.16;;;13.83;79.31
9423;BME280;4750;49.506;10.400;2022-08-24T02:36:35;98255.81;;;13.68;79.23
9423;BME280;4750;49.506;10.400;2022-08-24T02:39:19;98259.72;;;13.73;79.33
9423;BME280;4750;49.506;10.400;2022-08-24T02:42:05;98240.41;;;13.62;78.93
9423;BME280;4750;49.506;10.400;2022-08-24T02:44:49;98265.81;;;13.54;78.62
9423;BME280;4750;49.506;10.400;2022-08-24T02:47:35;98252.88;;;13.43;78.74
9423;BME280;4750;49.506;10.400;2022-08-24T02:50:20;98252.84;;;13.51;79.24
9423;BME280;4750;49.506;10.400;2022-08-24T02:53:04;98248.16;;;13.46;79.70
9423;BME280;4750;49.506;10.400;2022-08-24T02:55:48;98264.69;;;13.57;80.38
9423;BME280;4750;49.506;10.400;2022-08-24T02:58:34;98254.16;;;13.50;80.78
9423;BME280;4750;49.506;10.400;2022-08-24T03:01:17;98261.28;;;13.58;81.07
9423;BME280;4750;49.506;10.400;2022-08-24T03:04:04;98255.66;;;13.51;81.67
9423;BME280;4750;49.506;10.400;2022-08-24T03:06:49;98264.88;;;13.51;81.67
9423;BME280;4750;49.506;10.400;2022-08-24T03:09:34;98251.50;;;13.59;82.20
9423;BME280;4750;49.506;10.400;2022-08-24T03:12:18;98235.75;;;13.49;82.43
9423;BME280;4750;49.506;10.400;2022-08-24T03:15:05;98242.47;;;13.61;82.63
9423;BME280;4750;49.506;10.400;2022-08-24T03:17:49;98266.25;;;13.91;82.68
9423;BME280;4750;49.506;10.400;2022-08-24T03:20:34;98247.50;;;13.78;82.76
9423;BME280;4750;49.506;10.400;2022-08-24T03:23:18;98191.59;;;13.36;82.62
9423;BME280;4750;49.506;10.400;2022-08-24T03:26:04;98233.09;;;13.51;82.86
9423;BME280;4750;49.506;10.400;2022-08-24T03:28:49;98247.91;;;13.67;82.89
9423;BME280;4750;49.506;10.400;2022-08-24T03:31:34;98247.91;;;13.67;83.12
9423;BME280;4750;49.506;10.400;2022-08-24T03:34:19;98271.06;;;13.65;83.10
9423;BME280;4750;49.506;10.400;2022-08-24T03:37:04;98257.84;;;13.68;82.92
9423;BME280;4750;49.506;10.400;2022-08-24T03:39:48;98256.38;;;13.59;82.68
9423;BME280;4750;49.506;10.400;2022-08-24T03:42:35;98246.28;;;13.48;82.85
9423;BME280;4750;49.506;10.400;2022-08-24T03:45:20;98202.56;;;13.08;82.76
9423;BME280;4750;49.506;10.400;2022-08-24T03:48:05;98247.59;;;13.24;82.75
9423;BME280;4750;49.506;10.400;2022-08-24T03:50:50;98249.13;;;13.17;82.90
9423;BME280;4750;49.506;10.400;2022-08-24T03:53:34;98258.72;;;13.14;83.33
9423;BME280;4750;49.506;10.400;2022-08-24T03:56:18;98255.72;;;12.97;83.30
9423;BME280;4750;49.506;10.400;2022-08-24T03:59:03;98262.13;;;12.97;83.03
9423;BME280;4750;49.506;10.400;2022-08-24T04:01:53;98253.28;;;12.93;83.52
9423;BME280;4750;49.506;10.400;2022-08-24T04:04:39;98265.31;;;12.86;82.72
9423;BME280;4750;49.506;10.400;2022-08-24T04:07:23;98259.09;;;12.80;82.78
9423;BME280;4750;49.506;10.400;2022-08-24T04:10:08;98248.59;;;12.72;82.61
9423;BME280;4750;49.506;10.400;2022-08-24T04:12:52;98265.66;;;12.59;82.57
9423;BME280;4750;49.506;10.400;2022-08-24T04:15:39;98242.75;;;12.47;82.76
9423;BME280;4750;49.506;10.400;2022-08-24T04:18:25;98248.94;;;12.46;82.90
9423;BME280;4750;49.506;10.400;2022-08-24T04:21:22;98271.66;;;12.55;83.05
9423;BME280;4750;49.506;10.400;2022-08-24T04:24:07;98247.41;;;12.29;83.40
9423;BME280;4750;49.506;10.400;2022-08-24T04:26:53;98276.19;;;12.66;83.74
9423;BME280;4750;49.506;10.400;2022-08-24T04:29:37;98287.44;;;12.74;83.65
9423;BME280;4750;49.506;10.400;2022-08-24T04:32:23;98289.72;;;12.68;83.59
9423;BME280;4750;49.506;10.400;2022-08-24T04:35:07;98215.69;;;12.21;83.80
9423;BME280;4750;49.506;10.400;2022-08-24T04:37:51;98202.72;;;12.02;83.82
9423;BME280;4750;49.506;10.400;2022-08-24T04:40:40;98255.13;;;12.44;84.17
9423;BME280;4750;49.506;10.400;2022-08-24T04:43:26;98216.22;;;12.12;84.30
9423;BME280;4750;49.506;10.400;2022-08-24T04:46:11;98268.84;;;12.48;84.51
9423;BME280;4750;49.506;10.400;2022-08-24T04:48:58;98285.75;;;12.48;84.63
9423;BME280;4750;49.506;10.400;2022-08-24T04:51:42;98286.31;;;12.69;84.72
9423;BME280;4750;49.506;10.400;2022-08-24T04:54:26;98277.31;;;12.63;84.47
9423;BME280;4750;49.506;10.400;2022-08-24T04:57:23;98300.06;;;12.96;84.56
9423;BME280;4750;49.506;10.400;2022-08-24T05:00:08;98300.06;;;13.12;84.82
9423;BME280;4750;49.506;10.400;2022-08-24T05:03:00;98282.97;;;13.17;85.34
9423;BME280;4750;49.506;10.400;2022-08-24T05:05:46;98288.56;;;13.33;85.61
9423;BME280;4750;49.506;10.400;2022-08-24T05:08:30;98301.16;;;13.47;85.63
9423;BME280;4750;49.506;10.400;2022-08-24T05:11:15;98321.06;;;13.72;85.78
9423;BME280;4750;49.506;10.400;2022-08-24T05:14:02;98327.59;;;13.83;85.80
9423;BME280;4750;49.506;10.400;2022-08-24T05:16:46;98318.19;;;13.80;85.74
9423;BME280;4750;49.506;10.400;2022-08-24T05:19:30;98330.75;;;13.94;85.54
9423;BME280;4750;49.506;10.400;2022-08-24T05:22:15;98325.50;;;14.39;85.72
9423;BME280;4750;49.506;10.400;2022-08-24T05:25:04;98321.09;;;16.07;85.47
9423;BME280;4750;49.506;10.400;2022-08-24T05:27:48;98319.44;;;17.89;82.17
9423;BME280;4750;49.506;10.400;2022-08-24T05:30:34;98308.38;;;19.47;75.78
9423;BME280;4750;49.506;10.400;2022-08-24T05:33:19;98311.31;;;20.47;68.64
9423;BME280;4750;49.506;10.400;2022-08-24T05:36:05;98298.09;;;21.23;63.82
9423;BME280;4750;49.506;10.400;2022-08-24T05:38:52;98312.00;;;22.27;59.41
9423;BME280;4750;49.506;10.400;2022-08-24T05:41:36;98263.66;;;22.45;56.01
9423;BME280;4750;49.506;10.400;2022-08-24T05:44:29;98312.47;;;23.86;53.42
9423;BME280;4750;49.506;10.400;2022-08-24T05:47:15;98328.91;;;24.30;50.80
9423;BME280;4750;49.506;10.400;2022-08-24T05:50:00;98338.97;;;24.45;50.31
9423;BME280;4750;49.506;10.400;2022-08-24T05:52:45;98297.59;;;24.04;50.57
9423;BME280;4750;49.506;10.400;2022-08-24T05:55:30;98308.03;;;23.83;51.23
9423;BME280;4750;49.506;10.400;2022-08-24T05:58:14;98337.09;;;24.65;50.85
9423;BME280;4750;49.506;10.400;2022-08-24T06:00:58;98328.66;;;24.69;50.13
9423;BME280;4750;49.506;10.400;2022-08-24T06:03:48;98331.56;;;25.01;49.53
9423;BME280;4750;49.506;10.400;2022-08-24T06:06:33;98328.06;;;25.69;48.36
9423;BME280;4750;49.506;10.400;2022-08-24T06:09:18;98332.72;;;26.48;46.92
9423;BME280;4750;49.506;10.400;2022-08-24T06:12:02;98324.59;;;26.42;46.78
9423;BME280;4750;49.506;10.400;2022-08-24T06:14:46;98331.97;;;26.84;45.91
9423;BME280;4750;49.506;10.400;2022-08-24T06:17:31;98332.38;;;27.54;44.81
9423;BME280;4750;49.506;10.400;2022-08-24T06:20:16;98318.19;;;27.82;43.39
9423;BME280;4750;49.506;10.400;2022-08-24T06:23:02;98234.94;;;27.08;43.52
9423;BME280;4750;49.506;10.400;2022-08-24T06:25:53;98303.63;;;26.96;44.17
9423;BME280;4750;49.506;10.400;2022-08-24T06:29:13;98295.78;;;26.78;44.90
9423;BME280;4750;49.506;10.400;2022-08-24T06:32:01;98307.31;;;26.98;45.16
9423;BME280;4750;49.506;10.400;2022-08-24T06:34:46;98204.78;;;26.51;44.41
9423;BME280;4750;49.506;10.400;2022-08-24T06:37:31;98242.63;;;26.82;44.85
9423;BME280;4750;49.506;10.400;2022-08-24T06:40:16;98305.19;;;27.39;45.01
9423;BME280;4750;49.506;10.400;2022-08-24T06:43:03;98293.78;;;27.63;44.08
9423;BME280;4750;49.506;10.400;2022-08-24T06:46:04;98332.47;;;28.21;43.53
9423;BME280;4750;49.506;10.400;2022-08-24T06:48:53;98309.78;;;27.89;41.86
9423;BME280;4750;49.506;10.400;2022-08-24T06:51:37;98322.13;;;26.17;46.83
9423;BME280;4750;49.506;10.400;2022-08-24T06:54:23;98315.44;;;27.87;44.99
9423;BME280;4750;49.506;10.400;2022-08-24T06:57:07;98324.88;;;27.67;43.74
9423;BME280;4750;49.506;10.400;2022-08-24T06:59:52;98347.47;;;26.94;45.21
9423;BME280;4750;49.506;10.400;2022-08-24T07:02:37;98355.34;;;26.56;46.63
9423;BME280;4750;49.506;10.400;2022-08-24T07:05:22;98356.31;;;26.80;46.54
9423;BME280;4750;49.506;10.400;2022-08-24T07:08:34;98333.81;;;26.21;47.20
9423;BME280;4750;49.506;10.400;2022-08-24T07:11:19;98345.53;;;25.09;49.45
9423;BME280;4750;49.506;10.400;2022-08-24T07:14:05;98347.75;;;23.75;52.73
9423;BME280;4750;49.506;10.400;2022-08-24T07:16:49;98338.28;;;23.72;54.13
9423;BME280;4750;49.506;10.400;2022-08-24T07:19:33;98331.47;;;22.57;56.67
9423;BME280;4750;49.506;10.400;2022-08-24T07:22:18;98330.66;;;22.54;58.01
9423;BME280;4750;49.506;10.400;2022-08-24T07:25:02;98326.84;;;22.63;58.00
9423;BME280;4750;49.506;10.400;2022-08-24T07:27:47;98322.91;;;23.10;57.34
9423;BME280;4750;49.506;10.400;2022-08-24T07:30:31;98328.28;;;22.90;57.39
9423;BME280;4750;49.506;10.400;2022-08-24T07:33:15;98338.22;;;23.29;56.67
9423;BME280;4750;49.506;10.400;2022-08-24T07:35:59;98337.22;;;23.66;56.28
9423;BME280;4750;49.506;10.400;2022-08-24T07:38:44;98324.09;;;23.19;56.57
9423;BME280;4750;49.506;10.400;2022-08-24T07:41:31;98310.94;;;23.42;56.78
9423;BME280;4750;49.506;10.400;2022-08-24T07:44:15;98332.41;;;23.41;55.86
9423;BME280;4750;49.506;10.400;2022-08-24T07:47:00;98335.47;;;23.45;56.21
9423;BME280;4750;49.506;10.400;2022-08-24T07:49:45;98342.88;;;23.64;55.97
9423;BME280;4750;49.506;10.400;2022-08-24T07:52:29;98313.94;;;23.44;55.43
9423;BME280;4750;49.506;10.400;2022-08-24T07:55:16;98330.88;;;23.67;55.17
9423;BME280;4750;49.506;10.400;2022-08-24T07:58:00;98315.09;;;23.52;55.53
9423;BME280;4750;49.506;10.400;2022-08-24T08:00:46;98330.34;;;23.71;55.98
9423;BME280;4750;49.506;10.400;2022-08-24T08:03:32;98342.03;;;23.89;55.04
9423;BME280;4750;49.506;10.400;2022-08-24T08:06:18;98355.31;;;24.12;54.95
9423;BME280;4750;49.506;10.400;2022-08-24T08:09:04;98325.81;;;24.10;54.82
9423;BME280;4750;49.506;10.400;2022-08-24T08:11:49;98350.00;;;24.50;53.66
9423;BME280;4750;49.506;10.400;2022-08-24T08:14:33;98337.91;;;24.38;52.77
9423;BME280;4750;49.506;10.400;2022-08-24T08:17:18;98356.22;;;24.61;52.51
9423;BME280;4750;49.506;10.400;2022-08-24T08:20:06;98357.53;;;24.73;52.02
9423;BME280;4750;49.506;10.400;2022-08-24T08:22:52;98346.75;;;24.58;52.27
9423;BME280;4750;49.506;10.400;2022-08-24T08:25:55;98351.63;;;24.69;52.03
9423;BME280;4750;49.506;10.400;2022-08-24T08:29:18;98357.75;;;24.78;51.67
9423;BME280;4750;49.506;10.400;2022-08-24T08:32:02;98325.91;;;24.71;51.24
9423;BME280;4750;49.506;10.400;2022-08-24T08:34:47;98320.66;;;24.52;50.56
9423;BME280;4750;49.506;10.400;2022-08-24T08:37:31;98341.16;;;24.60;51.01
9423;BME280;4750;49.506;10.400;2022-08-24T08:43:38;98348.31;;;24.91;50.91
9423;BME280;4750;49.506;10.400;2022-08-24T08:50:05;98345.81;;;25.15;49.26
9423;BME280;4750;49.506;10.400;2022-08-24T08:53:02;98353.97;;;25.05;49.78
9423;BME280;4750;49.506;10.400;2022-08-24T08:56:08;98302.81;;;24.69;49.67
9423;BME280;4750;49.506;10.400;2022-08-24T09:11:09;98281.28;;;24.68;48.62
9423;BME280;4750;49.506;10.400;2022-08-24T09:14:12;98340.28;;;25.69;48.36
9423;BME280;4750;49.506;10.400;2022-08-24T09:17:17;98269.78;;;25.50;47.36
9423;BME280;4750;49.506;10.400;2022-08-24T09:20:22;98339.25;;;25.97;46.25
9423;BME280;4750;49.506;10.400;2022-08-24T09:26:26;98272.78;;;25.70;45.54
9423;BME280;4750;49.506;10.400;2022-08-24T09:29:41;98336.09;;;26.06;45.90
9423;BME280;4750;49.506;10.400;2022-08-24T09:32:56;98315.72;;;26.36;45.48
9423;BME280;4750;49.506;10.400;2022-08-24T09:36:03;98276.53;;;26.27;44.83
9423;BME280;4750;49.506;10.400;2022-08-24T09:39:05;98321.47;;;26.36;45.83
9423;BME280;4750;49.506;10.400;2022-08-24T09:42:12;98322.34;;;26.59;45.00
9423;BME280;4750;49.506;10.400;2022-08-24T09:45:29;98323.13;;;26.41;45.06
9423;BME280;4750;49.506;10.400;2022-08-24T09:55:15;98311.81;;;27.24;43.34
9423;BME280;4750;49.506;10.400;2022-08-24T09:58:23;98305.56;;;27.29;43.08
9423;BME280;4750;49.506;10.400;2022-08-24T10:04:37;98298.00;;;27.60;42.35
9423;BME280;4750;49.506;10.400;2022-08-24T10:07:35;98305.78;;;27.78;42.68
9423;BME280;4750;49.506;10.400;2022-08-24T10:17:16;98285.56;;;27.56;42.91
9423;BME280;4750;49.506;10.400;2022-08-24T10:25:55;98272.63;;;28.45;40.81
9423;BME280;4750;49.506;10.400;2022-08-24T10:31:47;98275.84;;;28.09;40.57
9423;BME280;4750;49.506;10.400;2022-08-24T10:34:59;98284.34;;;28.05;40.40
9423;BME280;4750;49.506;10.400;2022-08-24T10:41:43;98278.56;;;29.00;39.63
9423;BME280;4750;49.506;10.400;2022-08-24T10:44:47;98285.13;;;29.27;39.11
9423;BME280;4750;49.506;10.400;2022-08-24T10:47:34;98266.72;;;29.16;39.08
9423;BME280;4750;49.506;10.400;2022-08-24T10:50:51;98265.16;;;29.11;38.94
9423;BME280;4750;49.506;10.400;2022-08-24T10:53:32;98274.72;;;29.17;38.45
9423;BME280;4750;49.506;10.400;2022-08-24T10:56:29;98258.91;;;28.94;38.63
9423;BME280;4750;49.506;10.400;2022-08-24T10:59:39;98260.72;;;28.81;39.66
9423;BME280;4750;49.506;10.400;2022-08-24T11:02:32;98257.75;;;29.30;38.55
9423;BME280;4750;49.506;10.400;2022-08-24T11:05:28;98225.44;;;29.11;37.91
9423;BME280;4750;49.506;10.400;2022-08-24T11:08:22;98257.38;;;29.17;38.26
9423;BME280;4750;49.506;10.400;2022-08-24T11:11:11;98264.34;;;29.08;38.21
9423;BME280;4750;49.506;10.400;2022-08-24T11:14:02;98256.66;;;29.17;38.01
9423;BME280;4750;49.506;10.400;2022-08-24T11:16:47;98255.63;;;29.06;38.31
9423;BME280;4750;49.506;10.400;2022-08-24T11:19:33;98258.56;;;29.34;38.24
9423;BME280;4750;49.506;10.400;2022-08-24T11:28:06;98251.44;;;29.38;37.85
9423;BME280;4750;49.506;10.400;2022-08-24T11:31:00;98241.53;;;29.75;37.39
9423;BME280;4750;49.506;10.400;2022-08-24T11:33:48;98249.84;;;28.80;38.00
9423;BME280;4750;49.506;10.400;2022-08-24T11:36:35;98234.03;;;28.10;39.49
9423;BME280;4750;49.506;10.400;2022-08-24T11:39:34;98252.41;;;28.94;38.35
9423;BME280;4750;49.506;10.400;2022-08-24T11:42:28;98241.16;;;29.59;38.25
9423;BME280;4750;49.506;10.400;2022-08-24T11:57:58;98238.19;;;29.57;37.22
9423;BME280;4750;49.506;10.400;2022-08-24T12:00:54;98237.47;;;29.56;38.04
9423;BME280;4750;49.506;10.400;2022-08-24T12:10:13;98233.59;;;30.36;36.64
9423;BME280;4750;49.506;10.400;2022-08-24T12:21:38;98217.94;;;30.48;36.30
9423;BME280;4750;49.506;10.400;2022-08-24T12:24:34;98222.16;;;30.77;36.15
9423;BME280;4750;49.506;10.400;2022-08-24T12:27:27;98218.75;;;30.87;35.57
9423;BME280;4750;49.506;10.400;2022-08-24T12:30:14;98216.16;;;29.71;36.02
9423;BME280;4750;49.506;10.400;2022-08-24T12:33:05;98224.44;;;29.27;37.32
9423;BME280;4750;49.506;10.400;2022-08-24T12:35:54;98237.63;;;29.62;36.47
9423;BME280;4750;49.506;10.400;2022-08-24T12:38:50;98209.97;;;29.27;37.38
9423;BME280;4750;49.506;10.400;2022-08-24T12:41:48;98230.72;;;28.93;38.24
9423;BME280;4750;49.506;10.400;2022-08-24T12:44:57;98226.66;;;28.54;38.60
9423;BME280;4750;49.506;10.400;2022-08-24T12:54:55;98227.03;;;30.01;37.09
9423;BME280;4750;49.506;10.400;2022-08-24T13:00:45;98165.59;;;28.13;39.04
9423;BME280;4750;49.506;10.400;2022-08-24T13:03:34;98225.94;;;28.53;39.83
9423;BME280;4750;49.506;10.400;2022-08-24T13:06:34;98173.22;;;28.02;39.03
9423;BME280;4750;49.506;10.400;2022-08-24T13:20:57;98193.91;;;29.22;36.76
9423;BME280;4750;49.506;10.400;2022-08-24T13:23:41;98201.53;;;28.82;37.74
9423;BME280;4750;49.506;10.400;2022-08-24T13:26:25;98208.50;;;28.99;37.99
9423;BME280;4750;49.506;10.400;2022-08-24T13:29:13;98200.53;;;28.98;38.00
9423;BME280;4750;49.506;10.400;2022-08-24T13:31:59;98194.13;;;29.86;36.91
9423;BME280;4750;49.506;10.400;2022-08-24T13:34:46;98203.94;;;29.75;36.02
9423;BME280;4750;49.506;10.400;2022-08-24T13:37:31;98163.44;;;29.73;36.25
9423;BME280;4750;49.506;10.400;2022-08-24T13:40:18;98170.88;;;30.15;35.43
9423;BME280;4750;49.506;10.400;2022-08-24T13:43:12;98133.44;;;29.88;36.09
9423;BME280;4750;49.506;10.400;2022-08-24T13:49:15;98193.75;;;29.42;36.75
9423;BME280;4750;49.506;10.400;2022-08-24T13:52:31;98189.88;;;28.78;37.15
9423;BME280;4750;49.506;10.400;2022-08-24T13:56:20;98173.59;;;28.14;38.01
9423;BME280;4750;49.506;10.400;2022-08-24T13:59:03;98186.88;;;28.74;38.18
9423;BME280;4750;49.506;10.400;2022-08-24T14:02:03;98164.75;;;29.68;35.45
9423;BME280;4750;49.506;10.400;2022-08-24T14:05:02;98187.09;;;29.37;36.78
9423;BME280;4750;49.506;10.400;2022-08-24T14:07:58;98163.88;;;29.92;34.91
9423;BME280;4750;49.506;10.400;2022-08-24T14:11:08;98100.41;;;30.34;33.70
9423;BME280;4750;49.506;10.400;2022-08-24T14:20:48;98173.31;;;31.36;33.24
9423;BME280;4750;49.506;10.400;2022-08-24T14:35:05;98180.16;;;29.20;35.75
9423;BME280;4750;49.506;10.400;2022-08-24T14:47:24;98158.75;;;30.94;33.02
9423;BME280;4750;49.506;10.400;2022-08-24T15:08:36;98148.53;;;28.45;36.34
9423;BME280;4750;49.506;10.400;2022-08-24T15:11:26;98147.19;;;28.75;37.44
9423;BME280;4750;49.506;10.400;2022-08-24T15:14:27;98143.84;;;29.13;35.88
9423;BME280;4750;49.506;10.400;2022-08-24T15:17:18;98086.66;;;28.79;36.00
9423;BME280;4750;49.506;10.400;2022-08-24T15:22:57;98067.41;;;29.18;35.43
9423;BME280;4750;49.506;10.400;2022-08-24T15:25:53;98117.31;;;29.20;35.76
9423;BME280;4750;49.506;10.400;2022-08-24T15:28:49;98119.03;;;29.60;35.64
9423;BME280;4750;49.506;10.400;2022-08-24T15:31:33;98121.88;;;29.28;36.77
9423;BME280;4750;49.506;10.400;2022-08-24T15:34:17;98123.13;;;29.81;36.83
9423;BME280;4750;49.506;10.400;2022-08-24T15:37:02;98129.47;;;30.06;36.64
9423;BME280;4750;49.506;10.400;2022-08-24T15:39:46;98108.75;;;29.85;36.97
9423;BME280;4750;49.506;10.400;2022-08-24T15:42:32;98112.03;;;29.39;37.41
9423;BME280;4750;49.506;10.400;2022-08-24T15:45:18;98146.59;;;28.80;38.70
9423;BME280;4750;49.506;10.400;2022-08-24T15:48:04;98073.53;;;27.73;39.55
9423;BME280;4750;49.506;10.400;2022-08-24T15:50:49;98139.81;;;27.73;40.82
9423;BME280;4750;49.506;10.400;2022-08-24T15:53:39;98133.44;;;27.52;41.21
9423;BME280;4750;49.506;10.400;2022-08-24T15:56:30;98150.41;;;27.42;41.14
9423;BME280;4750;49.506;10.400;2022-08-24T16:02:26;98139.25;;;27.54;41.25
9423;BME280;4750;49.506;10.400;2022-08-24T16:05:18;98145.94;;;27.83;40.04
9423;BME280;4750;49.506;10.400;2022-08-24T16:08:11;98142.63;;;27.93;40.14
9423;BME280;4750;49.506;10.400;2022-08-24T16:11:06;98153.09;;;27.82;39.91
9423;BME280;4750;49.506;10.400;2022-08-24T16:14:02;98127.84;;;28.05;39.50
9423;BME280;4750;49.506;10.400;2022-08-24T16:16:48;98137.09;;;28.49;39.22
9423;BME280;4750;49.506;10.400;2022-08-24T16:19:33;98137.19;;;28.27;39.61
9423;BME280;4750;49.506;10.400;2022-08-24T16:22:51;98126.00;;;28.66;39.09
9423;BME280;4750;49.506;10.400;2022-08-24T16:25:43;98095.81;;;28.19;39.68
9423;BME280;4750;49.506;10.400;2022-08-24T16:28:33;98127.69;;;28.23;39.75
9423;BME280;4750;49.506;10.400;2022-08-24T16:34:30;98123.44;;;28.26;40.50
9423;BME280;4750;49.506;10.400;2022-08-24T16:37:19;98124.53;;;28.65;39.64
9423;BME280;4750;49.506;10.400;2022-08-24T16:40:03;98069.91;;;28.47;39.37
9423;BME280;4750;49.506;10.400;2022-08-24T16:42:48;98127.38;;;28.63;38.64
9423;BME280;4750;49.506;10.400;2022-08-24T16:45:33;98130.25;;;28.63;37.89
9423;BME280;4750;49.506;10.400;2022-08-24T16:48:17;98089.25;;;28.42;37.91
9423;BME280;4750;49.506;10.400;2022-08-24T16:51:01;98104.91;;;28.88;37.61
9423;BME280;4750;49.506;10.400;2022-08-24T16:53:46;98125.63;;;28.78;38.96
9423;BME280;4750;49.506;10.400;2022-08-24T16:56:30;98032.56;;;27.52;40.47
9423;BME280;4750;49.506;10.400;2022-08-24T16:59:19;98106.88;;;27.80;41.18
9423;BME280;4750;49.506;10.400;2022-08-24T17:02:06;98135.97;;;27.64;41.66
9423;BME280;4750;49.506;10.400;2022-08-24T17:04:50;98079.34;;;27.06;42.63
9423;BME280;4750;49.506;10.400;2022-08-24T17:07:34;98132.22;;;27.37;42.64
9423;BME280;4750;49.506;10.400;2022-08-24T17:10:19;98135.28;;;27.21;43.00
9423;BME280;4750;49.506;10.400;2022-08-24T17:13:05;98139.84;;;27.06;43.23
9423;BME280;4750;49.506;10.400;2022-08-24T17:15:50;98080.97;;;26.49;43.44
9423;BME280;4750;49.506;10.400;2022-08-24T17:18:34;98151.53;;;26.70;44.01
9423;BME280;4750;49.506;10.400;2022-08-24T17:21:18;98132.34;;;26.37;44.78
9423;BME280;4750;49.506;10.400;2022-08-24T17:24:04;98142.88;;;26.30;45.06
9423;BME280;4750;49.506;10.400;2022-08-24T17:26:49;98157.56;;;26.38;45.30
9423;BME280;4750;49.506;10.400;2022-08-24T17:29:36;98094.91;;;25.78;45.37
9423;BME280;4750;49.506;10.400;2022-08-24T17:32:20;98145.44;;;26.22;45.21
9423;BME280;4750;49.506;10.400;2022-08-24T17:35:04;98112.47;;;25.87;45.40
9423;BME280;4750;49.506;10.400;2022-08-24T17:37:50;98151.47;;;25.92;45.79
9423;BME280;4750;49.506;10.400;2022-08-24T17:40:35;98145.09;;;25.75;45.87
9423;BME280;4750;49.506;10.400;2022-08-24T17:43:19;98157.06;;;25.88;46.09
9423;BME280;4750;49.506;10.400;2022-08-24T17:46:04;98128.69;;;25.42;46.23
9423;BME280;4750;49.506;10.400;2022-08-24T17:48:49;98154.13;;;25.68;46.36
9423;BME280;4750;49.506;10.400;2022-08-24T17:51:33;98158.81;;;25.59;46.52